createdAt,value
2022-09-23T00:01:18.199Z,99549.44
2022-09-23T00:03:51.805Z,99545.77
2022-09-23T00:06:45.138Z,99544.02
2022-09-23T00:09:17.482Z,99550.29
2022-09-23T00:12:11.163Z,99550.81
2022-09-23T00:14:45.879Z,99547.86
2022-09-23T00:17:23.774Z,99542.29
2022-09-23T00:19:55.598Z,99540.21
2022-09-23T00:22:27.781Z,99539.02
2022-09-23T00:24:59.607Z,99538.90
2022-09-23T00:27:34.080Z,99536.14
2022-09-23T00:30:09.135Z,99531.48
2022-09-23T00:32:41.114Z,99530.30
2022-09-23T00:35:13.182Z,99528.06
2022-09-23T00:37:45.087Z,99529.48
2022-09-23T00:40:17.596Z,99525.67
2022-09-23T00:42:52.156Z,99528.33
2022-09-23T00:45:24.185Z,99529.75
2022-09-23T00:47:59.238Z,99524.55
2022-09-23T00:50:37.413Z,99524.20
2022-09-23T00:53:12.293Z,99525.95
2022-09-23T00:55:56.784Z,99524.20
2022-09-23T00:58:43.040Z,99523.81
2022-09-23T01:01:15.397Z,99521.70
2022-09-23T01:03:50.358Z,99519.79
2022-09-23T01:06:25.380Z,99524.69
2022-09-23T01:08:57.410Z,99521.94
2022-09-23T01:11:42.247Z,99520.55
2022-09-23T01:14:36.559Z,99520.73
2022-09-23T01:17:15.999Z,99519.53
2022-09-23T01:20:10.811Z,99518.50
2022-09-23T01:22:50.734Z,99515.77
2022-09-23T01:25:35.008Z,99515.77
2022-09-23T01:28:30.383Z,99517.88
2022-09-23T01:31:09.547Z,99518.94
2022-09-23T01:33:58.134Z,99518.63
2022-09-23T01:36:37.787Z,99521.45
2022-09-23T01:39:14.146Z,99528.11
2022-09-23T01:42:01.687Z,99531.25
2022-09-23T01:44:44.725Z,99530.73
2022-09-23T01:47:20.420Z,99528.27
2022-09-23T01:49:57.226Z,99530.88
2022-09-23T01:52:33.626Z,99531.92
2022-09-23T01:55:12.027Z,99530.02
2022-09-23T01:58:01.136Z,99528.10
2022-09-23T02:00:40.763Z,99524.09
2022-09-23T02:03:18.913Z,99527.24
2022-09-23T02:06:01.912Z,99522.01
2022-09-23T02:08:39.308Z,99524.11
2022-09-23T02:11:14.021Z,99526.41
2022-09-23T02:13:49.715Z,99527.65
2022-09-23T02:16:26.224Z,99525.55
2022-09-23T02:19:02.665Z,99529.92
2022-09-23T02:21:37.531Z,99529.05
2022-09-23T02:24:13.994Z,99527.83
2022-09-23T02:26:53.032Z,99528.35
2022-09-23T02:29:31.576Z,99526.97
2022-09-23T02:32:14.315Z,99529.44
2022-09-23T02:34:54.627Z,99524.54
2022-09-23T02:37:38.933Z,99524.19
2022-09-23T02:40:22.948Z,99524.32
2022-09-23T02:43:06.932Z,99522.88
2022-09-23T02:45:39.219Z,99519.20
2022-09-23T02:48:15.262Z,99521.30
2022-09-23T02:50:56.180Z,99519.73
2022-09-23T02:53:28.039Z,99518.84
2022-09-23T02:55:59.732Z,99516.91
2022-09-23T02:58:32.105Z,99515.70
2022-09-23T03:01:12.084Z,99516.58
2022-09-23T03:03:54.858Z,99512.91
2022-09-23T03:06:33.477Z,99514.66
2022-09-23T03:09:14.601Z,99511.50
2022-09-23T03:11:51.731Z,99508.53
2022-09-23T03:14:31.967Z,99509.77
2022-09-23T03:17:07.466Z,99507.50
2022-09-23T03:19:48.437Z,99501.39
2022-09-23T03:22:34.762Z,99502.97
2022-09-23T03:25:12.626Z,99507.88
2022-09-23T03:27:46.545Z,99506.30
2022-09-23T03:30:21.782Z,99502.80
2022-09-23T03:32:57.934Z,99504.05
2022-09-23T03:35:55.084Z,99501.39
2022-09-23T03:38:34.199Z,99507.71
2022-09-23T03:41:17.126Z,99508.08
2022-09-23T03:43:49.106Z,99506.17
2022-09-23T03:46:30.422Z,99505.81
2022-09-23T03:49:10.598Z,99505.64
2022-09-23T03:51:44.701Z,99503.66
2022-09-23T03:54:30.049Z,99503.69
2022-09-23T03:57:04.773Z,99506.16
2022-09-23T03:59:36.953Z,99504.77
2022-09-23T04:02:09.531Z,99506.88
2022-09-23T04:04:41.617Z,99509.48
2022-09-23T04:07:14.122Z,99512.98
2022-09-23T04:09:45.901Z,99514.21
2022-09-23T04:12:18.878Z,99509.87
2022-09-23T04:14:50.676Z,99510.98
2022-09-23T04:17:22.552Z,99512.97
2022-09-23T04:19:54.480Z,99512.98
2022-09-23T04:22:26.580Z,99512.30
2022-09-23T04:24:58.478Z,99508.85
2022-09-23T04:27:34.193Z,99510.95
2022-09-23T04:30:10.563Z,99508.15
2022-09-23T04:32:43.051Z,99509.55
2022-09-23T04:35:15.087Z,99510.73
2022-09-23T04:37:50.373Z,99506.34
2022-09-23T04:40:22.263Z,99510.19
2022-09-23T04:42:56.487Z,99510.48
2022-09-23T04:45:28.787Z,99510.11
2022-09-23T04:48:00.732Z,99518.15
2022-09-23T04:50:33.980Z,99518.85
2022-09-23T04:53:06.389Z,99516.40
2022-09-23T04:55:38.956Z,99517.45
2022-09-23T04:58:11.718Z,99516.06
2022-09-23T05:00:44.755Z,99515.02
2022-09-23T05:03:17.182Z,99515.23
2022-09-23T05:05:48.889Z,99517.17
2022-09-23T05:08:22.201Z,99518.06
2022-09-23T05:10:59.386Z,99517.58
2022-09-23T05:13:31.908Z,99519.70
2022-09-23T05:16:06.786Z,99516.56
2022-09-23T05:18:41.304Z,99516.25
2022-09-23T05:21:14.558Z,99517.13
2022-09-23T05:23:52.473Z,99518.90
2022-09-23T05:26:25.695Z,99519.98
2022-09-23T05:29:00.612Z,99521.90
2022-09-23T05:31:33.096Z,99524.90
2022-09-23T05:34:06.411Z,99526.50
2022-09-23T05:36:39.665Z,99526.70
2022-09-23T05:39:11.628Z,99527.08
2022-09-23T05:41:43.637Z,99530.95
2022-09-23T05:44:15.453Z,99530.08
2022-09-23T05:46:47.575Z,99533.75
2022-09-23T05:49:19.710Z,99536.90
2022-09-23T05:51:51.605Z,99537.25
2022-09-23T05:54:23.581Z,99538.68
2022-09-23T05:56:55.778Z,99540.95
2022-09-23T05:59:27.664Z,99542.16
2022-09-23T06:01:59.986Z,99541.14
2022-09-23T06:04:31.886Z,99543.59
2022-09-23T06:07:03.880Z,99545.34
2022-09-23T06:09:36.887Z,99545.16
2022-09-23T06:12:09.778Z,99543.94
2022-09-23T06:14:41.655Z,99544.83
2022-09-23T06:17:13.478Z,99543.08
2022-09-23T06:19:45.306Z,99541.01
2022-09-23T06:22:18.738Z,99539.77
2022-09-23T06:24:50.588Z,99540.65
2022-09-23T06:27:22.306Z,99543.12
2022-09-23T06:29:54.331Z,99545.21
2022-09-23T06:32:26.155Z,99547.15
2022-09-23T06:34:58.061Z,99543.11
2022-09-23T06:37:30.710Z,99542.42
2022-09-23T06:40:05.509Z,99542.44
2022-09-23T06:42:37.261Z,99539.63
2022-09-23T06:45:15.095Z,99543.64
2022-09-23T06:47:47.223Z,99550.29
2022-09-23T06:50:19.188Z,99551.84
2022-09-23T06:52:56.181Z,99548.31
2022-09-23T06:55:28.785Z,99551.45
2022-09-23T06:58:01.601Z,99552.13
2022-09-23T07:00:33.376Z,99553.18
2022-09-23T07:03:15.774Z,99551.61
2022-09-23T07:05:58.864Z,99552.48
2022-09-23T07:08:33.878Z,99553.00
2022-09-23T07:11:13.541Z,99549.98
2022-09-23T07:13:45.984Z,99549.95
2022-09-23T07:16:18.079Z,99556.23
2022-09-23T07:18:50.241Z,99559.71
2022-09-23T07:21:22.152Z,99560.21
2022-09-23T07:23:53.843Z,99559.82
2022-09-23T07:26:26.287Z,99560.50
2022-09-23T07:29:05.012Z,99561.70
2022-09-23T07:31:40.021Z,99558.67
2022-09-23T07:34:13.279Z,99561.08
2022-09-23T07:36:45.206Z,99557.96
2022-09-23T07:39:17.356Z,99559.30
2022-09-23T07:41:52.169Z,99559.73
2022-09-23T07:44:45.324Z,99561.45
2022-09-23T07:47:17.786Z,99559.02
2022-09-23T07:49:49.750Z,99556.67
2022-09-23T07:52:21.647Z,99558.55
2022-09-23T07:54:53.792Z,99560.66
2022-09-23T07:57:25.632Z,99555.30
2022-09-23T08:00:09.657Z,99556.60
2022-09-23T08:03:02.074Z,99554.34
2022-09-23T08:05:33.941Z,99554.95
2022-09-23T08:08:07.197Z,99553.63
2022-09-23T08:10:39.461Z,99555.79
2022-09-23T08:13:11.389Z,99554.95
2022-09-23T08:15:44.361Z,99555.17
2022-09-23T08:18:16.144Z,99555.29
2022-09-23T08:20:48.245Z,99556.98
2022-09-23T08:23:21.117Z,99555.79
2022-09-23T08:26:00.204Z,99558.40
2022-09-23T08:28:33.889Z,99561.70
2022-09-23T08:31:06.398Z,99560.10
2022-09-23T08:33:41.196Z,99554.63
2022-09-23T08:36:14.144Z,99553.46
2022-09-23T08:38:49.150Z,99551.70
2022-09-23T08:41:29.105Z,99555.58
2022-09-23T08:44:13.135Z,99552.98
2022-09-23T08:46:51.108Z,99554.91
2022-09-23T08:49:32.769Z,99552.16
2022-09-23T08:52:15.301Z,99546.83
2022-09-23T08:54:50.794Z,99544.73
2022-09-23T08:57:41.470Z,99548.02
2022-09-23T09:00:21.220Z,99546.48
2022-09-23T09:02:55.188Z,99544.38
2022-09-23T09:05:31.088Z,99545.35
2022-09-23T09:08:04.927Z,99539.79
2022-09-23T09:10:44.919Z,99539.46
2022-09-23T09:13:29.691Z,99538.79
2022-09-23T09:17:01.400Z,99534.00
2022-09-23T09:19:55.825Z,99532.95
2022-09-23T09:22:42.939Z,99528.08
2022-09-23T09:25:36.456Z,99529.10
2022-09-23T09:28:19.049Z,99523.45
2022-09-23T09:30:55.052Z,99523.51
2022-09-23T09:33:33.246Z,99520.39
2022-09-23T09:36:20.469Z,99518.41
2022-09-23T09:38:53.462Z,99518.26
2022-09-23T09:41:27.648Z,99515.27
2022-09-23T09:44:01.113Z,99516.27
2022-09-23T09:46:57.708Z,99507.73
2022-09-23T09:49:46.810Z,99503.71
2022-09-23T09:52:29.815Z,99498.23
2022-09-23T09:55:25.373Z,99500.71
2022-09-23T09:58:01.961Z,99507.38
2022-09-23T10:00:43.401Z,99503.96
2022-09-23T10:03:32.485Z,99503.08
2022-09-23T10:06:17.415Z,99503.86
2022-09-23T10:09:14.824Z,99503.61
2022-09-23T10:12:13.203Z,99500.29
2022-09-23T10:14:45.549Z,99493.45
2022-09-23T10:17:24.227Z,99487.20
2022-09-23T10:20:18.373Z,99481.35
2022-09-23T10:22:50.592Z,99478.25
2022-09-23T10:25:26.692Z,99477.48
2022-09-23T10:27:58.633Z,99478.00
2022-09-23T10:30:31.032Z,99476.75
2022-09-23T10:33:03.658Z,99479.66
2022-09-23T10:35:36.120Z,99485.16
2022-09-23T10:38:12.680Z,99487.80
2022-09-23T10:41:06.852Z,99485.23
2022-09-23T10:44:07.977Z,99489.07
2022-09-23T10:46:42.361Z,99494.31
2022-09-23T10:49:39.566Z,99502.24
2022-09-23T10:52:39.196Z,99511.22
2022-09-23T10:55:27.814Z,99515.31
2022-09-23T10:58:21.585Z,99517.06
2022-09-23T11:01:03.883Z,99523.31
2022-09-23T11:03:54.309Z,99522.73
2022-09-23T11:06:33.743Z,99516.61
2022-09-23T11:09:28.161Z,99503.76
2022-09-23T11:12:14.982Z,99498.16
2022-09-23T11:15:03.674Z,99491.27
2022-09-23T11:17:52.083Z,99489.48
2022-09-23T11:20:36.698Z,99488.48
2022-09-23T11:23:35.087Z,99484.45
2022-09-23T11:26:19.946Z,99479.03
2022-09-23T11:29:12.394Z,99480.52
2022-09-23T11:31:57.356Z,99478.52
2022-09-23T11:34:55.103Z,99475.91
2022-09-23T11:37:31.045Z,99470.66
2022-09-23T11:40:06.047Z,99472.13
2022-09-23T11:42:55.142Z,99467.73
2022-09-23T11:45:32.171Z,99467.64
2022-09-23T11:48:11.903Z,99465.94
2022-09-23T11:50:50.129Z,99461.36
2022-09-23T11:53:38.631Z,99461.42
2022-09-23T11:56:32.134Z,99460.35
2022-09-23T11:59:11.812Z,99457.58
2022-09-23T12:01:49.854Z,99463.45
2022-09-23T12:04:31.324Z,99458.02
2022-09-23T12:07:12.343Z,99457.22
2022-09-23T12:09:58.534Z,99457.15
2022-09-23T12:12:42.289Z,99457.64
2022-09-23T12:15:32.120Z,99458.06
2022-09-23T12:18:22.328Z,99461.20
2022-09-23T12:21:27.167Z,99464.39
2022-09-23T12:24:49.009Z,99462.71
2022-09-23T12:27:31.990Z,99460.18
2022-09-23T12:30:35.202Z,99451.26
2022-09-23T12:33:30.033Z,99437.30
2022-09-23T12:36:30.483Z,99428.68
2022-09-23T12:39:30.004Z,99430.85
2022-09-23T12:42:06.418Z,99425.67
2022-09-23T12:45:20.392Z,99426.34
2022-09-23T12:48:43.096Z,99426.61
2022-09-23T12:51:37.440Z,99425.50
2022-09-23T12:54:30.110Z,99423.85
2022-09-23T12:57:22.159Z,99423.17
2022-09-23T12:59:59.446Z,99425.19
2022-09-23T13:03:16.319Z,99427.51
2022-09-23T13:06:23.766Z,99423.28
2022-09-23T13:09:14.442Z,99427.55
2022-09-23T13:11:50.435Z,99419.51
2022-09-23T13:14:27.812Z,99417.91
2022-09-23T13:17:02.402Z,99414.58
2022-09-23T13:19:58.491Z,99408.65
2022-09-23T13:22:58.289Z,99401.89
2022-09-23T13:25:52.295Z,99391.91
2022-09-23T13:28:57.948Z,99386.98
2022-09-23T13:31:46.038Z,99381.02
2022-09-23T13:34:33.937Z,99374.04
2022-09-23T13:37:30.652Z,99373.33
2022-09-23T13:40:21.110Z,99372.02
2022-09-23T13:42:58.589Z,99370.00
2022-09-23T13:45:51.087Z,99368.01
2022-09-23T13:48:45.404Z,99365.32
2022-09-23T13:51:30.476Z,99359.30
2022-09-23T13:54:29.874Z,99361.05
2022-09-23T13:57:27.838Z,99356.93
2022-09-23T14:00:23.375Z,99351.91
2022-09-23T14:03:28.650Z,99344.19
2022-09-23T14:06:07.209Z,99348.04
2022-09-23T14:08:51.485Z,99347.88
2022-09-23T14:11:44.647Z,99342.40
2022-09-23T14:14:39.565Z,99343.34
2022-09-23T14:17:25.089Z,99342.98
2022-09-23T14:20:14.102Z,99338.44
2022-09-23T14:22:47.257Z,99334.41
2022-09-23T14:25:40.235Z,99332.48
2022-09-23T14:28:27.483Z,99335.41
2022-09-23T14:31:03.345Z,99335.80
2022-09-23T14:33:55.823Z,99334.84
2022-09-23T14:36:56.674Z,99338.27
2022-09-23T14:39:41.173Z,99336.93
2022-09-23T14:42:26.171Z,99334.89
2022-09-23T14:45:20.944Z,99337.47
2022-09-23T14:48:18.636Z,99339.00
2022-09-23T14:51:03.509Z,99338.67
2022-09-23T14:53:55.546Z,99339.38
2022-09-23T14:56:45.335Z,99337.96
2022-09-23T14:59:38.192Z,99332.16
2022-09-23T15:02:36.119Z,99334.16
2022-09-23T15:05:42.593Z,99337.48
2022-09-23T15:08:37.002Z,99337.08
2022-09-23T15:11:22.512Z,99335.42
2022-09-23T15:14:36.618Z,99334.66
2022-09-23T15:17:09.120Z,99339.41
2022-09-23T15:20:05.078Z,99339.98
2022-09-23T15:22:49.799Z,99338.61
2022-09-23T15:25:43.880Z,99336.64
2022-09-23T15:28:35.883Z,99333.66
2022-09-23T15:31:27.923Z,99337.33
2022-09-23T15:34:11.293Z,99333.70
2022-09-23T15:37:03.650Z,99334.66
2022-09-23T15:39:55.649Z,99331.52
2022-09-23T15:42:38.011Z,99330.95
2022-09-23T15:45:14.598Z,99332.20
2022-09-23T15:48:12.656Z,99336.63
2022-09-23T15:51:08.185Z,99333.95
2022-09-23T15:54:00.170Z,99333.59
2022-09-23T15:56:52.204Z,99334.02
2022-09-23T15:59:27.149Z,99335.30
2022-09-23T16:02:24.794Z,99339.91
2022-09-23T16:05:23.797Z,99343.46
2022-09-23T16:08:09.143Z,99345.22
2022-09-23T16:10:54.999Z,99347.83
2022-09-23T16:13:47.155Z,99349.88
2022-09-23T16:16:39.295Z,99347.05
2022-09-23T16:19:14.805Z,99351.66
2022-09-23T16:22:07.198Z,99349.25
2022-09-23T16:24:38.931Z,99346.80
2022-09-23T16:27:31.764Z,99346.48
2022-09-23T16:30:14.550Z,99347.30
2022-09-23T16:32:51.751Z,99348.59
2022-09-23T16:35:43.817Z,99348.27
2022-09-23T16:38:36.937Z,99353.51
2022-09-23T16:41:31.550Z,99349.60
2022-09-23T16:44:05.512Z,99346.20
2022-09-23T16:46:57.815Z,99346.66
2022-09-23T16:49:49.765Z,99341.70
2022-09-23T16:52:42.047Z,99346.56
2022-09-23T16:55:34.195Z,99345.09
2022-09-23T16:58:26.254Z,99347.49
2022-09-23T17:01:39.376Z,99349.33
2022-09-23T17:04:12.177Z,99351.34
2022-09-23T17:07:04.177Z,99347.85
2022-09-23T17:09:56.222Z,99348.07
2022-09-23T17:12:48.219Z,99349.67
2022-09-23T17:15:40.790Z,99348.45
2022-09-23T17:18:23.337Z,99351.98
2022-09-23T17:21:15.479Z,99357.59
2022-09-23T17:24:08.128Z,99359.73
2022-09-23T17:26:56.812Z,99362.00
2022-09-23T17:29:48.759Z,99362.02
2022-09-23T17:32:40.923Z,99360.27
2022-09-23T17:35:32.996Z,99361.68
2022-09-23T17:38:07.466Z,99363.42
2022-09-23T17:41:01.324Z,99363.77
2022-09-23T17:44:00.916Z,99367.98
2022-09-23T17:46:53.016Z,99366.41
2022-09-23T17:49:47.657Z,99363.27
2022-09-23T17:52:29.595Z,99367.44
2022-09-23T17:55:21.695Z,99369.38
2022-09-23T17:58:13.779Z,99367.80
2022-09-23T18:01:06.420Z,99367.42
2022-09-23T18:03:59.568Z,99366.55
2022-09-23T18:06:52.073Z,99368.46
2022-09-23T18:09:44.216Z,99367.39
2022-09-23T18:12:37.409Z,99369.14
2022-09-23T18:15:29.755Z,99375.40
2022-09-23T18:18:22.937Z,99373.65
2022-09-23T18:21:15.032Z,99379.04
2022-09-23T18:27:20.663Z,99381.48
2022-09-23T18:30:14.330Z,99381.64
2022-09-23T18:32:56.237Z,99380.54
2022-09-23T18:35:48.654Z,99380.48
2022-09-23T18:38:40.882Z,99381.67
2022-09-23T18:41:34.213Z,99381.63
2022-09-23T18:44:26.932Z,99381.98
2022-09-23T18:47:32.962Z,99379.54
2022-09-23T18:50:32.726Z,99377.79
2022-09-23T18:53:25.075Z,99378.14
2022-09-23T18:56:19.635Z,99374.80
2022-09-23T18:59:18.314Z,99375.11
2022-09-23T19:02:02.993Z,99377.02
2022-09-23T19:04:55.558Z,99382.20
2022-09-23T19:07:37.649Z,99383.56
2022-09-23T19:10:29.798Z,99387.40
2022-09-23T19:13:24.688Z,99383.73
2022-09-23T19:16:13.464Z,99382.52
2022-09-23T19:19:06.838Z,99379.73
2022-09-23T19:21:59.572Z,99380.42
2022-09-23T19:24:51.760Z,99377.96
2022-09-23T19:27:44.062Z,99382.35
2022-09-23T19:30:37.331Z,99384.79
2022-09-23T19:33:29.306Z,99383.73
2022-09-23T19:36:26.936Z,99384.21
2022-09-23T19:39:22.591Z,99378.92
2022-09-23T19:42:14.731Z,99379.76
2022-09-23T19:45:08.044Z,99382.88
2022-09-23T19:48:00.929Z,99382.34
2022-09-23T19:50:49.763Z,99380.02
2022-09-23T19:53:45.782Z,99383.68
2022-09-23T19:56:38.933Z,99386.35
2022-09-23T19:59:31.355Z,99384.98
2022-09-23T20:02:23.570Z,99384.14
2022-09-23T20:05:20.267Z,99388.21
2022-09-23T20:08:11.168Z,99387.69
2022-09-23T20:11:11.656Z,99384.02
2022-09-23T20:14:06.396Z,99385.00
2022-09-23T20:17:00.156Z,99387.07
2022-09-23T20:19:52.138Z,99389.47
2022-09-23T20:22:43.162Z,99386.19
2022-09-23T20:25:49.255Z,99383.79
2022-09-23T20:28:41.356Z,99387.34
2022-09-23T20:31:35.251Z,99388.05
2022-09-23T20:34:29.795Z,99388.07
2022-09-23T20:37:23.550Z,99386.66
2022-09-23T20:40:16.256Z,99387.55
2022-09-23T20:43:08.346Z,99387.16
2022-09-23T20:46:01.850Z,99391.00
2022-09-23T20:48:56.774Z,99388.91
2022-09-23T20:51:50.125Z,99389.09
2022-09-23T20:54:35.127Z,99386.30
2022-09-23T20:57:28.122Z,99386.35
2022-09-23T21:00:20.484Z,99389.53
2022-09-23T21:03:12.447Z,99385.52
2022-09-23T21:06:05.781Z,99386.01
2022-09-23T21:08:58.104Z,99385.96
2022-09-23T21:11:50.101Z,99382.14
2022-09-23T21:14:42.278Z,99383.55
2022-09-23T21:17:34.641Z,99383.34
2022-09-23T21:20:26.708Z,99381.72
2022-09-23T21:23:21.787Z,99379.05
2022-09-23T21:26:17.578Z,99380.80
2022-09-23T21:29:09.971Z,99383.83
2022-09-23T21:32:02.113Z,99382.46
2022-09-23T21:34:54.248Z,99385.66
2022-09-23T21:37:46.642Z,99383.95
2022-09-23T21:40:56.141Z,99385.23
2022-09-23T21:43:49.682Z,99383.88
2022-09-23T21:46:41.885Z,99377.95
2022-09-23T21:49:34.288Z,99376.21
2022-09-23T21:52:07.305Z,99373.23
2022-09-23T21:54:59.400Z,99372.70
2022-09-23T21:57:51.663Z,99369.91
2022-09-23T22:00:44.045Z,99368.86
2022-09-23T22:03:36.653Z,99371.36
2022-09-23T22:06:13.964Z,99368.96
2022-09-23T22:09:09.295Z,99366.40
2022-09-23T22:12:09.948Z,99367.84
2022-09-23T22:15:02.061Z,99364.21
2022-09-23T22:17:54.748Z,99356.86
2022-09-23T22:20:47.906Z,99354.59
2022-09-23T22:23:29.748Z,99354.24
2022-09-23T22:26:21.925Z,99352.30
2022-09-23T22:29:33.807Z,99351.04
2022-09-23T22:32:54.387Z,99349.41
2022-09-23T22:35:48.296Z,99346.75
2022-09-23T22:38:43.934Z,99350.76
2022-09-23T22:41:28.798Z,99350.58
2022-09-23T22:44:21.356Z,99352.65
2022-09-23T22:47:03.715Z,99353.15
2022-09-23T22:49:55.754Z,99353.66
2022-09-23T22:52:49.258Z,99358.99
2022-09-23T22:55:43.181Z,99361.37
2022-09-23T22:58:35.154Z,99359.41
2022-09-23T23:01:27.404Z,99362.89
2022-09-23T23:04:22.371Z,99363.59
2022-09-23T23:07:16.586Z,99366.59
2022-09-23T23:10:10.524Z,99361.75
2022-09-23T23:13:03.973Z,99358.48
2022-09-23T23:15:55.933Z,99363.27
2022-09-23T23:18:48.087Z,99364.70
2022-09-23T23:21:43.210Z,99361.72
2022-09-23T23:24:28.644Z,99363.81
2022-09-23T23:27:20.794Z,99359.44
2022-09-23T23:30:08.456Z,99356.47
2022-09-23T23:33:00.482Z,99351.06
2022-09-23T23:35:54.060Z,99350.73
2022-09-23T23:38:49.950Z,99348.15
2022-09-23T23:41:42.843Z,99344.48
2022-09-23T23:44:34.982Z,99350.25
2022-09-23T23:47:27.571Z,99342.04
2022-09-23T23:50:19.577Z,99339.44
2022-09-23T23:53:11.997Z,99342.25
2022-09-23T23:56:07.764Z,99338.27
2022-09-23T23:59:02.530Z,99335.13
